sensor_id;sensor_type;location;lat;lon;timestamp;P1;durP1;ratioP1;P2;durP2;ratioP2
76574;SDS011;65439;50.948;6.988;2023-06-19T00:01:58;6.60;;;5.50;;
76574;SDS011;65439;50.948;6.988;2023-06-19T00:04:24;6.68;;;5.50;;
76574;SDS011;65439;50.948;6.988;2023-06-19T00:06:50;7.97;;;5.78;;
76574;SDS011;65439;50.948;6.988;2023-06-19T00:09:15;8.90;;;5.63;;
76574;SDS011;65439;50.948;6.988;2023-06-19T00:14:07;6.07;;;5.47;;
76574;SDS011;65439;50.948;6.988;2023-06-19T00:16:32;8.63;;;5.63;;
76574;SDS011;65439;50.948;6.988;2023-06-19T00:18:58;7.63;;;5.57;;
76574;SDS011;65439;50.948;6.988;2023-06-19T00:21:23;6.47;;;5.50;;
76574;SDS011;65439;50.948;6.988;2023-06-19T00:23:52;9.43;;;5.47;;
76574;SDS011;65439;50.948;6.988;2023-06-19T00:26:18;6.75;;;5.60;;
76574;SDS011;65439;50.948;6.988;2023-06-19T00:28:47;6.43;;;5.75;;
76574;SDS011;65439;50.948;6.988;2023-06-19T00:31:13;8.00;;;5.85;;
76574;SDS011;65439;50.948;6.988;2023-06-19T00:36:11;8.63;;;6.03;;
76574;SDS011;65439;50.948;6.988;2023-06-19T00:38:37;7.65;;;6.03;;
76574;SDS011;65439;50.948;6.988;2023-06-19T00:41:03;7.53;;;6.72;;
76574;SDS011;65439;50.948;6.988;2023-06-19T00:45:56;7.37;;;6.30;;
76574;SDS011;65439;50.948;6.988;2023-06-19T00:48:22;6.57;;;5.85;;
76574;SDS011;65439;50.948;6.988;2023-06-19T00:50:48;6.30;;;5.68;;
76574;SDS011;65439;50.948;6.988;2023-06-19T00:53:14;7.05;;;6.03;;
76574;SDS011;65439;50.948;6.988;2023-06-19T00:55:39;6.87;;;5.57;;
76574;SDS011;65439;50.948;6.988;2023-06-19T00:58:05;6.28;;;5.22;;
76574;SDS011;65439;50.948;6.988;2023-06-19T01:00:31;6.75;;;6.00;;
76574;SDS011;65439;50.948;6.988;2023-06-19T01:02:56;8.30;;;6.28;;
76574;SDS011;65439;50.948;6.988;2023-06-19T01:05:22;6.53;;;5.63;;
76574;SDS011;65439;50.948;6.988;2023-06-19T01:07:53;7.82;;;6.57;;
76574;SDS011;65439;50.948;6.988;2023-06-19T01:10:21;6.65;;;5.30;;
76574;SDS011;65439;50.948;6.988;2023-06-19T01:12:52;7.00;;;6.10;;
76574;SDS011;65439;50.948;6.988;2023-06-19T01:15:21;6.72;;;6.03;;
76574;SDS011;65439;50.948;6.988;2023-06-19T01:17:47;7.20;;;6.15;;
76574;SDS011;65439;50.948;6.988;2023-06-19T01:22:39;8.00;;;6.25;;
76574;SDS011;65439;50.948;6.988;2023-06-19T01:25:05;7.30;;;6.60;;
76574;SDS011;65439;50.948;6.988;2023-06-19T01:27:30;6.75;;;6.05;;
76574;SDS011;65439;50.948;6.988;2023-06-19T01:29:56;8.63;;;6.70;;
76574;SDS011;65439;50.948;6.988;2023-06-19T01:34:51;7.97;;;6.53;;
76574;SDS011;65439;50.948;6.988;2023-06-19T01:37:17;7.05;;;5.95;;
76574;SDS011;65439;50.948;6.988;2023-06-19T01:39:43;7.88;;;6.72;;
76574;SDS011;65439;50.948;6.988;2023-06-19T01:42:10;7.20;;;6.50;;
76574;SDS011;65439;50.948;6.988;2023-06-19T01:44:36;7.40;;;6.57;;
76574;SDS011;65439;50.948;6.988;2023-06-19T01:47:11;7.40;;;6.65;;
76574;SDS011;65439;50.948;6.988;2023-06-19T01:49:36;7.85;;;7.05;;
76574;SDS011;65439;50.948;6.988;2023-06-19T01:52:02;8.57;;;7.68;;
76574;SDS011;65439;50.948;6.988;2023-06-19T01:54:28;7.93;;;7.13;;
76574;SDS011;65439;50.948;6.988;2023-06-19T01:56:53;8.43;;;7.57;;
76574;SDS011;65439;50.948;6.988;2023-06-19T01:59:18;7.88;;;7.07;;
76574;SDS011;65439;50.948;6.988;2023-06-19T02:01:44;8.27;;;7.40;;
76574;SDS011;65439;50.948;6.988;2023-06-19T02:04:09;8.43;;;7.03;;
76574;SDS011;65439;50.948;6.988;2023-06-19T02:06:34;7.90;;;6.90;;
76574;SDS011;65439;50.948;6.988;2023-06-19T02:09:00;8.50;;;7.25;;
76574;SDS011;65439;50.948;6.988;2023-06-19T02:11:25;7.25;;;6.47;;
76574;SDS011;65439;50.948;6.988;2023-06-19T02:13:51;8.82;;;7.18;;
76574;SDS011;65439;50.948;6.988;2023-06-19T02:16:16;8.30;;;7.00;;
76574;SDS011;65439;50.948;6.988;2023-06-19T02:18:41;10.17;;;7.53;;
76574;SDS011;65439;50.948;6.988;2023-06-19T02:21:07;10.70;;;7.20;;
76574;SDS011;65439;50.948;6.988;2023-06-19T02:23:32;8.55;;;7.65;;
76574;SDS011;65439;50.948;6.988;2023-06-19T02:25:58;9.20;;;7.32;;
76574;SDS011;65439;50.948;6.988;2023-06-19T02:28:23;8.07;;;7.23;;
76574;SDS011;65439;50.948;6.988;2023-06-19T02:30:48;9.93;;;7.37;;
76574;SDS011;65439;50.948;6.988;2023-06-19T02:33:14;8.33;;;7.23;;
76574;SDS011;65439;50.948;6.988;2023-06-19T02:35:39;8.77;;;7.77;;
76574;SDS011;65439;50.948;6.988;2023-06-19T02:38:06;8.10;;;7.30;;
76574;SDS011;65439;50.948;6.988;2023-06-19T02:40:32;9.18;;;7.88;;
76574;SDS011;65439;50.948;6.988;2023-06-19T02:42:57;8.43;;;7.53;;
76574;SDS011;65439;50.948;6.988;2023-06-19T02:45:22;8.67;;;7.77;;
76574;SDS011;65439;50.948;6.988;2023-06-19T02:47:47;8.10;;;7.20;;
76574;SDS011;65439;50.948;6.988;2023-06-19T02:50:13;9.50;;;7.63;;
76574;SDS011;65439;50.948;6.988;2023-06-19T02:52:38;10.18;;;8.27;;
76574;SDS011;65439;50.948;6.988;2023-06-19T02:55:04;8.82;;;7.93;;
76574;SDS011;65439;50.948;6.988;2023-06-19T02:57:32;9.65;;;8.05;;
76574;SDS011;65439;50.948;6.988;2023-06-19T02:59:57;9.43;;;8.40;;
76574;SDS011;65439;50.948;6.988;2023-06-19T03:02:22;8.40;;;7.20;;
76574;SDS011;65439;50.948;6.988;2023-06-19T03:04:48;9.70;;;8.03;;
76574;SDS011;65439;50.948;6.988;2023-06-19T03:07:15;10.82;;;8.32;;
76574;SDS011;65439;50.948;6.988;2023-06-19T03:09:41;10.68;;;7.72;;
76574;SDS011;65439;50.948;6.988;2023-06-19T03:12:07;10.52;;;9.00;;
76574;SDS011;65439;50.948;6.988;2023-06-19T03:14:33;11.02;;;8.23;;
76574;SDS011;65439;50.948;6.988;2023-06-19T03:16:58;9.13;;;8.17;;
76574;SDS011;65439;50.948;6.988;2023-06-19T03:19:24;14.75;;;8.02;;
76574;SDS011;65439;50.948;6.988;2023-06-19T03:21:49;8.37;;;7.57;;
76574;SDS011;65439;50.948;6.988;2023-06-19T03:24:14;11.70;;;8.13;;
76574;SDS011;65439;50.948;6.988;2023-06-19T03:26:40;13.30;;;8.48;;
76574;SDS011;65439;50.948;6.988;2023-06-19T03:29:05;11.17;;;8.90;;
76574;SDS011;65439;50.948;6.988;2023-06-19T03:31:30;10.67;;;9.40;;
76574;SDS011;65439;50.948;6.988;2023-06-19T03:33:59;10.98;;;8.30;;
76574;SDS011;65439;50.948;6.988;2023-06-19T03:36:24;8.90;;;7.93;;
76574;SDS011;65439;50.948;6.988;2023-06-19T03:38:49;10.83;;;8.53;;
76574;SDS011;65439;50.948;6.988;2023-06-19T03:41:15;10.35;;;9.35;;
76574;SDS011;65439;50.948;6.988;2023-06-19T03:43:40;9.25;;;8.18;;
76574;SDS011;65439;50.948;6.988;2023-06-19T03:46:05;13.23;;;8.85;;
76574;SDS011;65439;50.948;6.988;2023-06-19T03:48:31;12.20;;;7.63;;
76574;SDS011;65439;50.948;6.988;2023-06-19T03:50:56;9.47;;;7.47;;
76574;SDS011;65439;50.948;6.988;2023-06-19T03:53:24;9.40;;;7.20;;
76574;SDS011;65439;50.948;6.988;2023-06-19T03:55:49;12.00;;;6.60;;
76574;SDS011;65439;50.948;6.988;2023-06-19T03:58:14;8.77;;;7.87;;
76574;SDS011;65439;50.948;6.988;2023-06-19T04:00:39;8.27;;;7.00;;
76574;SDS011;65439;50.948;6.988;2023-06-19T04:03:06;7.05;;;6.25;;
76574;SDS011;65439;50.948;6.988;2023-06-19T04:05:31;9.53;;;6.83;;
76574;SDS011;65439;50.948;6.988;2023-06-19T04:07:56;8.40;;;6.50;;
76574;SDS011;65439;50.948;6.988;2023-06-19T04:10:22;8.13;;;6.23;;
76574;SDS011;65439;50.948;6.988;2023-06-19T04:12:47;8.23;;;6.07;;
76574;SDS011;65439;50.948;6.988;2023-06-19T04:15:12;8.73;;;5.00;;
76574;SDS011;65439;50.948;6.988;2023-06-19T04:17:38;7.18;;;6.15;;
76574;SDS011;65439;50.948;6.988;2023-06-19T04:20:04;7.73;;;5.93;;
76574;SDS011;65439;50.948;6.988;2023-06-19T04:22:36;6.50;;;4.90;;
76574;SDS011;65439;50.948;6.988;2023-06-19T04:25:03;6.38;;;5.10;;
76574;SDS011;65439;50.948;6.988;2023-06-19T04:27:28;8.73;;;5.68;;
76574;SDS011;65439;50.948;6.988;2023-06-19T04:29:54;6.57;;;4.77;;
76574;SDS011;65439;50.948;6.988;2023-06-19T04:32:19;6.20;;;5.17;;
76574;SDS011;65439;50.948;6.988;2023-06-19T04:34:45;6.47;;;4.72;;
76574;SDS011;65439;50.948;6.988;2023-06-19T04:37:11;8.30;;;4.57;;
76574;SDS011;65439;50.948;6.988;2023-06-19T04:39:37;5.68;;;4.15;;
76574;SDS011;65439;50.948;6.988;2023-06-19T04:42:02;5.28;;;4.35;;
76574;SDS011;65439;50.948;6.988;2023-06-19T04:44:28;5.18;;;4.25;;
76574;SDS011;65439;50.948;6.988;2023-06-19T04:46:55;6.35;;;3.92;;
76574;SDS011;65439;50.948;6.988;2023-06-19T04:49:27;5.03;;;4.18;;
76574;SDS011;65439;50.948;6.988;2023-06-19T04:51:55;5.25;;;3.67;;
76574;SDS011;65439;50.948;6.988;2023-06-19T04:56:46;5.17;;;2.93;;
76574;SDS011;65439;50.948;6.988;2023-06-19T04:59:12;3.77;;;2.97;;
76574;SDS011;65439;50.948;6.988;2023-06-19T05:01:37;5.57;;;3.40;;
76574;SDS011;65439;50.948;6.988;2023-06-19T05:04:05;5.18;;;2.88;;
76574;SDS011;65439;50.948;6.988;2023-06-19T05:06:30;5.80;;;4.05;;
76574;SDS011;65439;50.948;6.988;2023-06-19T05:08:56;5.05;;;3.13;;
76574;SDS011;65439;50.948;6.988;2023-06-19T05:11:21;4.00;;;2.97;;
76574;SDS011;65439;50.948;6.988;2023-06-19T05:13:46;4.37;;;2.90;;
76574;SDS011;65439;50.948;6.988;2023-06-19T05:16:12;6.13;;;3.20;;
76574;SDS011;65439;50.948;6.988;2023-06-19T05:18:41;4.43;;;3.17;;
76574;SDS011;65439;50.948;6.988;2023-06-19T05:21:06;4.57;;;2.90;;
76574;SDS011;65439;50.948;6.988;2023-06-19T05:23:31;5.90;;;3.70;;
76574;SDS011;65439;50.948;6.988;2023-06-19T05:25:57;5.20;;;3.37;;
76574;SDS011;65439;50.948;6.988;2023-06-19T05:28:22;7.20;;;3.50;;
76574;SDS011;65439;50.948;6.988;2023-06-19T05:30:47;5.13;;;2.90;;
76574;SDS011;65439;50.948;6.988;2023-06-19T05:33:15;4.70;;;3.05;;
76574;SDS011;65439;50.948;6.988;2023-06-19T05:35:40;4.22;;;3.15;;
76574;SDS011;65439;50.948;6.988;2023-06-19T05:38:06;3.38;;;2.75;;
76574;SDS011;65439;50.948;6.988;2023-06-19T05:40:32;4.07;;;2.83;;
76574;SDS011;65439;50.948;6.988;2023-06-19T05:42:57;4.80;;;3.00;;
76574;SDS011;65439;50.948;6.988;2023-06-19T05:45:22;4.43;;;3.30;;
76574;SDS011;65439;50.948;6.988;2023-06-19T05:47:48;6.57;;;3.40;;
76574;SDS011;65439;50.948;6.988;2023-06-19T05:50:13;5.53;;;2.83;;
76574;SDS011;65439;50.948;6.988;2023-06-19T05:52:38;5.70;;;3.03;;
76574;SDS011;65439;50.948;6.988;2023-06-19T05:55:07;6.70;;;4.07;;
76574;SDS011;65439;50.948;6.988;2023-06-19T05:57:33;5.13;;;3.53;;
76574;SDS011;65439;50.948;6.988;2023-06-19T05:59:58;6.53;;;3.63;;
76574;SDS011;65439;50.948;6.988;2023-06-19T06:02:23;7.03;;;2.87;;
76574;SDS011;65439;50.948;6.988;2023-06-19T06:04:49;4.65;;;2.67;;
76574;SDS011;65439;50.948;6.988;2023-06-19T06:07:14;6.07;;;2.90;;
76574;SDS011;65439;50.948;6.988;2023-06-19T06:09:39;4.00;;;2.70;;
76574;SDS011;65439;50.948;6.988;2023-06-19T06:12:05;3.30;;;2.70;;
76574;SDS011;65439;50.948;6.988;2023-06-19T06:14:30;4.85;;;2.90;;
76574;SDS011;65439;50.948;6.988;2023-06-19T06:16:56;3.33;;;2.50;;
76574;SDS011;65439;50.948;6.988;2023-06-19T06:19:21;6.03;;;3.17;;
76574;SDS011;65439;50.948;6.988;2023-06-19T06:24:13;4.03;;;2.80;;
76574;SDS011;65439;50.948;6.988;2023-06-19T06:26:38;4.83;;;2.93;;
76574;SDS011;65439;50.948;6.988;2023-06-19T06:29:03;5.03;;;3.10;;
76574;SDS011;65439;50.948;6.988;2023-06-19T06:31:29;8.55;;;3.00;;
76574;SDS011;65439;50.948;6.988;2023-06-19T06:33:54;4.80;;;2.80;;
76574;SDS011;65439;50.948;6.988;2023-06-19T06:36:19;4.57;;;3.47;;
76574;SDS011;65439;50.948;6.988;2023-06-19T06:38:45;5.00;;;2.85;;
76574;SDS011;65439;50.948;6.988;2023-06-19T06:41:10;5.77;;;3.33;;
76574;SDS011;65439;50.948;6.988;2023-06-19T06:43:35;3.77;;;2.70;;
76574;SDS011;65439;50.948;6.988;2023-06-19T06:46:00;3.83;;;2.53;;
76574;SDS011;65439;50.948;6.988;2023-06-19T06:48:26;4.93;;;2.53;;
76574;SDS011;65439;50.948;6.988;2023-06-19T06:50:51;6.73;;;3.00;;
76574;SDS011;65439;50.948;6.988;2023-06-19T06:53:25;4.10;;;2.80;;
76574;SDS011;65439;50.948;6.988;2023-06-19T06:55:51;3.80;;;3.03;;
76574;SDS011;65439;50.948;6.988;2023-06-19T06:58:16;4.50;;;2.45;;
76574;SDS011;65439;50.948;6.988;2023-06-19T07:00:43;3.53;;;2.45;;
76574;SDS011;65439;50.948;6.988;2023-06-19T07:03:09;3.25;;;2.53;;
76574;SDS011;65439;50.948;6.988;2023-06-19T07:05:34;5.33;;;2.70;;
76574;SDS011;65439;50.948;6.988;2023-06-19T07:07:59;5.97;;;3.20;;
76574;SDS011;65439;50.948;6.988;2023-06-19T07:10:24;6.13;;;2.77;;
76574;SDS011;65439;50.948;6.988;2023-06-19T07:12:50;3.57;;;1.80;;
76574;SDS011;65439;50.948;6.988;2023-06-19T07:15:16;3.10;;;2.15;;
76574;SDS011;65439;50.948;6.988;2023-06-19T07:17:41;6.35;;;2.33;;
76574;SDS011;65439;50.948;6.988;2023-06-19T07:20:07;3.33;;;2.67;;
76574;SDS011;65439;50.948;6.988;2023-06-19T07:22:32;2.92;;;2.10;;
76574;SDS011;65439;50.948;6.988;2023-06-19T07:24:58;3.65;;;2.00;;
76574;SDS011;65439;50.948;6.988;2023-06-19T07:27:23;3.77;;;2.40;;
76574;SDS011;65439;50.948;6.988;2023-06-19T07:29:52;4.13;;;1.95;;
76574;SDS011;65439;50.948;6.988;2023-06-19T07:32:18;4.07;;;2.03;;
76574;SDS011;65439;50.948;6.988;2023-06-19T07:34:43;2.40;;;1.83;;
76574;SDS011;65439;50.948;6.988;2023-06-19T07:37:08;7.00;;;1.80;;
76574;SDS011;65439;50.948;6.988;2023-06-19T07:39:34;3.67;;;2.00;;
76574;SDS011;65439;50.948;6.988;2023-06-19T07:41:59;3.10;;;1.80;;
76574;SDS011;65439;50.948;6.988;2023-06-19T07:44:24;3.37;;;1.50;;
76574;SDS011;65439;50.948;6.988;2023-06-19T07:46:49;2.10;;;1.50;;
76574;SDS011;65439;50.948;6.988;2023-06-19T07:49:15;2.53;;;1.60;;
76574;SDS011;65439;50.948;6.988;2023-06-19T07:51:40;3.42;;;2.10;;
76574;SDS011;65439;50.948;6.988;2023-06-19T07:54:06;4.97;;;2.10;;
76574;SDS011;65439;50.948;6.988;2023-06-19T07:56:31;6.10;;;3.37;;
76574;SDS011;65439;50.948;6.988;2023-06-19T07:58:58;4.22;;;2.42;;
76574;SDS011;65439;50.948;6.988;2023-06-19T08:01:23;4.57;;;2.57;;
76574;SDS011;65439;50.948;6.988;2023-06-19T08:03:49;22.13;;;6.37;;
76574;SDS011;65439;50.948;6.988;2023-06-19T08:06:14;9.50;;;3.57;;
76574;SDS011;65439;50.948;6.988;2023-06-19T08:08:39;6.37;;;2.97;;
76574;SDS011;65439;50.948;6.988;2023-06-19T08:11:04;4.17;;;3.47;;
76574;SDS011;65439;50.948;6.988;2023-06-19T08:13:30;5.43;;;2.10;;
76574;SDS011;65439;50.948;6.988;2023-06-19T08:15:55;5.23;;;2.10;;
76574;SDS011;65439;50.948;6.988;2023-06-19T08:20:46;4.67;;;2.60;;
76574;SDS011;65439;50.948;6.988;2023-06-19T08:23:11;5.00;;;2.27;;
76574;SDS011;65439;50.948;6.988;2023-06-19T08:25:36;6.45;;;2.28;;
76574;SDS011;65439;50.948;6.988;2023-06-19T08:28:01;4.83;;;3.60;;
76574;SDS011;65439;50.948;6.988;2023-06-19T08:30:27;3.50;;;2.55;;
76574;SDS011;65439;50.948;6.988;2023-06-19T08:32:52;2.88;;;2.20;;
76574;SDS011;65439;50.948;6.988;2023-06-19T08:35:18;6.82;;;3.00;;
76574;SDS011;65439;50.948;6.988;2023-06-19T08:37:43;2.77;;;1.90;;
76574;SDS011;65439;50.948;6.988;2023-06-19T08:40:09;5.57;;;3.25;;
76574;SDS011;65439;50.948;6.988;2023-06-19T08:42:35;13.52;;;3.33;;
76574;SDS011;65439;50.948;6.988;2023-06-19T08:47:29;3.33;;;2.13;;
76574;SDS011;65439;50.948;6.988;2023-06-19T08:49:56;3.88;;;2.20;;
76574;SDS011;65439;50.948;6.988;2023-06-19T08:52:23;4.88;;;2.72;;
76574;SDS011;65439;50.948;6.988;2023-06-19T08:54:48;5.10;;;2.30;;
76574;SDS011;65439;50.948;6.988;2023-06-19T08:57:13;5.23;;;2.53;;
76574;SDS011;65439;50.948;6.988;2023-06-19T09:02:05;3.00;;;2.35;;
76574;SDS011;65439;50.948;6.988;2023-06-19T09:04:30;3.53;;;2.42;;
76574;SDS011;65439;50.948;6.988;2023-06-19T09:06:59;3.60;;;2.80;;
76574;SDS011;65439;50.948;6.988;2023-06-19T09:09:27;5.38;;;3.20;;
76574;SDS011;65439;50.948;6.988;2023-06-19T09:12:00;4.97;;;3.20;;
76574;SDS011;65439;50.948;6.988;2023-06-19T09:16:58;5.90;;;2.80;;
76574;SDS011;65439;50.948;6.988;2023-06-19T09:19:24;5.05;;;3.05;;
76574;SDS011;65439;50.948;6.988;2023-06-19T09:21:49;5.10;;;2.80;;
76574;SDS011;65439;50.948;6.988;2023-06-19T09:24:15;6.17;;;3.50;;
76574;SDS011;65439;50.948;6.988;2023-06-19T09:26:40;6.38;;;3.35;;
76574;SDS011;65439;50.948;6.988;2023-06-19T09:29:15;4.70;;;3.20;;
76574;SDS011;65439;50.948;6.988;2023-06-19T09:31:41;6.05;;;3.58;;
76574;SDS011;65439;50.948;6.988;2023-06-19T09:34:06;6.05;;;3.88;;
76574;SDS011;65439;50.948;6.988;2023-06-19T09:36:32;7.55;;;3.53;;
76574;SDS011;65439;50.948;6.988;2023-06-19T09:38:59;5.55;;;3.60;;
76574;SDS011;65439;50.948;6.988;2023-06-19T09:41:25;5.13;;;4.05;;
76574;SDS011;65439;50.948;6.988;2023-06-19T09:43:50;4.95;;;3.38;;
76574;SDS011;65439;50.948;6.988;2023-06-19T09:46:22;5.57;;;3.22;;
76574;SDS011;65439;50.948;6.988;2023-06-19T09:48:52;5.68;;;3.50;;
76574;SDS011;65439;50.948;6.988;2023-06-19T09:51:20;4.10;;;3.47;;
76574;SDS011;65439;50.948;6.988;2023-06-19T09:53:49;7.03;;;3.63;;
76574;SDS011;65439;50.948;6.988;2023-06-19T09:56:15;4.80;;;3.35;;
76574;SDS011;65439;50.948;6.988;2023-06-19T09:58:44;7.53;;;3.60;;
76574;SDS011;65439;50.948;6.988;2023-06-19T10:01:09;5.88;;;3.47;;
76574;SDS011;65439;50.948;6.988;2023-06-19T10:03:35;6.07;;;2.95;;
76574;SDS011;65439;50.948;6.988;2023-06-19T10:06:01;4.15;;;2.83;;
76574;SDS011;65439;50.948;6.988;2023-06-19T10:08:29;6.18;;;5.57;;
76574;SDS011;65439;50.948;6.988;2023-06-19T10:10:55;5.60;;;3.53;;
76574;SDS011;65439;50.948;6.988;2023-06-19T10:13:22;5.43;;;3.85;;
76574;SDS011;65439;50.948;6.988;2023-06-19T10:15:56;6.00;;;3.50;;
76574;SDS011;65439;50.948;6.988;2023-06-19T10:18:21;4.77;;;3.60;;
76574;SDS011;65439;50.948;6.988;2023-06-19T10:20:49;6.70;;;3.85;;
76574;SDS011;65439;50.948;6.988;2023-06-19T10:23:16;6.03;;;4.60;;
76574;SDS011;65439;50.948;6.988;2023-06-19T10:25:47;7.25;;;4.40;;
76574;SDS011;65439;50.948;6.988;2023-06-19T10:28:21;8.60;;;4.22;;
76574;SDS011;65439;50.948;6.988;2023-06-19T10:30:54;5.82;;;3.33;;
76574;SDS011;65439;50.948;6.988;2023-06-19T10:33:26;6.43;;;3.88;;
76574;SDS011;65439;50.948;6.988;2023-06-19T10:35:53;5.47;;;3.90;;
76574;SDS011;65439;50.948;6.988;2023-06-19T10:38:19;7.53;;;3.95;;
76574;SDS011;65439;50.948;6.988;2023-06-19T10:40:44;4.73;;;3.73;;
76574;SDS011;65439;50.948;6.988;2023-06-19T10:45:36;4.90;;;3.65;;
76574;SDS011;65439;50.948;6.988;2023-06-19T10:50:28;7.03;;;3.90;;
76574;SDS011;65439;50.948;6.988;2023-06-19T10:52:53;5.88;;;4.38;;
76574;SDS011;65439;50.948;6.988;2023-06-19T10:55:21;7.47;;;4.60;;
76574;SDS011;65439;50.948;6.988;2023-06-19T10:57:48;5.45;;;3.83;;
76574;SDS011;65439;50.948;6.988;2023-06-19T11:00:27;6.78;;;4.20;;
76574;SDS011;65439;50.948;6.988;2023-06-19T11:02:56;5.65;;;4.18;;
76574;SDS011;65439;50.948;6.988;2023-06-19T11:07:52;9.13;;;3.65;;
76574;SDS011;65439;50.948;6.988;2023-06-19T11:10:18;4.82;;;4.00;;
76574;SDS011;65439;50.948;6.988;2023-06-19T11:12:44;5.78;;;4.53;;
76574;SDS011;65439;50.948;6.988;2023-06-19T11:17:35;8.20;;;4.35;;
76574;SDS011;65439;50.948;6.988;2023-06-19T11:22:47;5.93;;;4.43;;
76574;SDS011;65439;50.948;6.988;2023-06-19T11:25:12;8.88;;;3.58;;
76574;SDS011;65439;50.948;6.988;2023-06-19T11:30:04;5.43;;;3.92;;
76574;SDS011;65439;50.948;6.988;2023-06-19T11:32:33;5.57;;;3.97;;
76574;SDS011;65439;50.948;6.988;2023-06-19T11:35:06;7.95;;;3.63;;
76574;SDS011;65439;50.948;6.988;2023-06-19T11:37:36;7.80;;;4.05;;
76574;SDS011;65439;50.948;6.988;2023-06-19T11:40:02;5.70;;;4.32;;
76574;SDS011;65439;50.948;6.988;2023-06-19T11:42:43;4.88;;;3.80;;
76574;SDS011;65439;50.948;6.988;2023-06-19T11:45:09;7.05;;;4.65;;
76574;SDS011;65439;50.948;6.988;2023-06-19T11:50:03;6.25;;;4.43;;
76574;SDS011;65439;50.948;6.988;2023-06-19T11:52:29;6.55;;;4.95;;
76574;SDS011;65439;50.948;6.988;2023-06-19T11:57:20;7.77;;;4.27;;
76574;SDS011;65439;50.948;6.988;2023-06-19T12:02:10;6.33;;;3.60;;
76574;SDS011;65439;50.948;6.988;2023-06-19T12:07:01;7.23;;;4.57;;
76574;SDS011;65439;50.948;6.988;2023-06-19T12:09:28;5.40;;;3.85;;
76574;SDS011;65439;50.948;6.988;2023-06-19T12:14:19;5.10;;;3.17;;
76574;SDS011;65439;50.948;6.988;2023-06-19T12:16:45;6.65;;;3.58;;
76574;SDS011;65439;50.948;6.988;2023-06-19T12:21:36;6.50;;;3.80;;
76574;SDS011;65439;50.948;6.988;2023-06-19T12:26:27;5.65;;;3.78;;
76574;SDS011;65439;50.948;6.988;2023-06-19T12:28:53;8.32;;;4.35;;
76574;SDS011;65439;50.948;6.988;2023-06-19T12:31:18;5.18;;;3.63;;
76574;SDS011;65439;50.948;6.988;2023-06-19T12:36:12;5.90;;;3.92;;
76574;SDS011;65439;50.948;6.988;2023-06-19T12:38:38;8.27;;;4.22;;
76574;SDS011;65439;50.948;6.988;2023-06-19T12:41:04;6.70;;;4.32;;
76574;SDS011;65439;50.948;6.988;2023-06-19T12:45:56;6.90;;;4.13;;
76574;SDS011;65439;50.948;6.988;2023-06-19T12:48:24;4.57;;;3.63;;
76574;SDS011;65439;50.948;6.988;2023-06-19T12:53:15;5.00;;;3.83;;
76574;SDS011;65439;50.948;6.988;2023-06-19T12:58:05;5.30;;;3.40;;
76574;SDS011;65439;50.948;6.988;2023-06-19T13:00:31;5.53;;;3.50;;
76574;SDS011;65439;50.948;6.988;2023-06-19T13:02:56;4.93;;;3.78;;
76574;SDS011;65439;50.948;6.988;2023-06-19T13:05:21;4.23;;;3.67;;
76574;SDS011;65439;50.948;6.988;2023-06-19T13:07:47;6.13;;;4.03;;
76574;SDS011;65439;50.948;6.988;2023-06-19T13:10:12;8.70;;;3.43;;
76574;SDS011;65439;50.948;6.988;2023-06-19T13:12:37;6.10;;;3.60;;
76574;SDS011;65439;50.948;6.988;2023-06-19T13:15:03;4.87;;;3.23;;
76574;SDS011;65439;50.948;6.988;2023-06-19T13:17:28;4.72;;;3.83;;
76574;SDS011;65439;50.948;6.988;2023-06-19T13:19:54;3.30;;;2.63;;
76574;SDS011;65439;50.948;6.988;2023-06-19T13:22:19;4.63;;;3.15;;
76574;SDS011;65439;50.948;6.988;2023-06-19T13:24:45;6.73;;;3.40;;
76574;SDS011;65439;50.948;6.988;2023-06-19T13:27:10;5.05;;;3.30;;
76574;SDS011;65439;50.948;6.988;2023-06-19T13:29:35;4.72;;;3.67;;
76574;SDS011;65439;50.948;6.988;2023-06-19T13:32:01;7.68;;;4.00;;
76574;SDS011;65439;50.948;6.988;2023-06-19T13:34:26;6.63;;;4.13;;
76574;SDS011;65439;50.948;6.988;2023-06-19T13:36:52;6.72;;;3.70;;
76574;SDS011;65439;50.948;6.988;2023-06-19T13:39:17;6.37;;;3.53;;
76574;SDS011;65439;50.948;6.988;2023-06-19T13:41:45;4.78;;;3.92;;
76574;SDS011;65439;50.948;6.988;2023-06-19T13:44:11;5.68;;;4.03;;
76574;SDS011;65439;50.948;6.988;2023-06-19T13:46:37;4.72;;;3.70;;
76574;SDS011;65439;50.948;6.988;2023-06-19T13:49:03;7.28;;;3.45;;
76574;SDS011;65439;50.948;6.988;2023-06-19T13:51:28;5.93;;;3.63;;
76574;SDS011;65439;50.948;6.988;2023-06-19T13:53:53;5.10;;;3.60;;
76574;SDS011;65439;50.948;6.988;2023-06-19T13:56:19;5.30;;;3.55;;
76574;SDS011;65439;50.948;6.988;2023-06-19T13:58:45;4.57;;;3.63;;
76574;SDS011;65439;50.948;6.988;2023-06-19T14:01:10;5.40;;;3.40;;
76574;SDS011;65439;50.948;6.988;2023-06-19T14:03:36;4.20;;;3.57;;
76574;SDS011;65439;50.948;6.988;2023-06-19T14:06:04;4.45;;;3.67;;
76574;SDS011;65439;50.948;6.988;2023-06-19T14:08:29;5.83;;;3.83;;
76574;SDS011;65439;50.948;6.988;2023-06-19T14:10:54;6.25;;;3.83;;
76574;SDS011;65439;50.948;6.988;2023-06-19T14:13:20;4.82;;;3.55;;
76574;SDS011;65439;50.948;6.988;2023-06-19T14:15:45;5.53;;;3.88;;
76574;SDS011;65439;50.948;6.988;2023-06-19T14:18:11;8.43;;;3.92;;
76574;SDS011;65439;50.948;6.988;2023-06-19T14:20:36;6.80;;;4.23;;
76574;SDS011;65439;50.948;6.988;2023-06-19T14:23:01;4.72;;;3.45;;
76574;SDS011;65439;50.948;6.988;2023-06-19T14:25:26;4.37;;;3.47;;
76574;SDS011;65439;50.948;6.988;2023-06-19T14:27:52;5.10;;;3.73;;
76574;SDS011;65439;50.948;6.988;2023-06-19T14:30:17;4.93;;;4.00;;
76574;SDS011;65439;50.948;6.988;2023-06-19T14:32:43;4.95;;;3.70;;
76574;SDS011;65439;50.948;6.988;2023-06-19T14:35:09;4.03;;;3.40;;
76574;SDS011;65439;50.948;6.988;2023-06-19T14:37:34;5.55;;;3.47;;
76574;SDS011;65439;50.948;6.988;2023-06-19T14:40:00;6.23;;;3.67;;
76574;SDS011;65439;50.948;6.988;2023-06-19T14:42:25;5.45;;;3.38;;
76574;SDS011;65439;50.948;6.988;2023-06-19T14:44:50;6.72;;;4.20;;
76574;SDS011;65439;50.948;6.988;2023-06-19T14:47:16;5.00;;;3.40;;
76574;SDS011;65439;50.948;6.988;2023-06-19T14:49:41;6.35;;;3.55;;
76574;SDS011;65439;50.948;6.988;2023-06-19T14:52:07;5.13;;;3.70;;
76574;SDS011;65439;50.948;6.988;2023-06-19T14:54:32;5.68;;;3.50;;
76574;SDS011;65439;50.948;6.988;2023-06-19T14:56:57;4.57;;;3.20;;
76574;SDS011;65439;50.948;6.988;2023-06-19T14:59:23;3.97;;;3.40;;
76574;SDS011;65439;50.948;6.988;2023-06-19T15:01:48;5.53;;;3.80;;
76574;SDS011;65439;50.948;6.988;2023-06-19T15:04:14;4.87;;;4.33;;
76574;SDS011;65439;50.948;6.988;2023-06-19T15:06:39;6.82;;;3.90;;
76574;SDS011;65439;50.948;6.988;2023-06-19T15:09:04;7.17;;;3.50;;
76574;SDS011;65439;50.948;6.988;2023-06-19T15:11:30;5.75;;;4.35;;
76574;SDS011;65439;50.948;6.988;2023-06-19T15:13:55;5.37;;;4.10;;
76574;SDS011;65439;50.948;6.988;2023-06-19T15:16:20;6.57;;;3.40;;
76574;SDS011;65439;50.948;6.988;2023-06-19T15:18:47;4.45;;;3.20;;
76574;SDS011;65439;50.948;6.988;2023-06-19T15:21:12;7.72;;;4.05;;
76574;SDS011;65439;50.948;6.988;2023-06-19T15:23:38;4.47;;;3.75;;
76574;SDS011;65439;50.948;6.988;2023-06-19T15:26:04;5.82;;;3.47;;
76574;SDS011;65439;50.948;6.988;2023-06-19T15:28:31;5.97;;;4.72;;
76574;SDS011;65439;50.948;6.988;2023-06-19T15:30:57;7.03;;;3.75;;
76574;SDS011;65439;50.948;6.988;2023-06-19T15:33:23;4.13;;;3.73;;
76574;SDS011;65439;50.948;6.988;2023-06-19T15:35:48;6.37;;;4.03;;
76574;SDS011;65439;50.948;6.988;2023-06-19T15:38:14;6.07;;;3.72;;
76574;SDS011;65439;50.948;6.988;2023-06-19T15:40:40;4.90;;;3.60;;
76574;SDS011;65439;50.948;6.988;2023-06-19T15:43:05;5.70;;;4.13;;
76574;SDS011;65439;50.948;6.988;2023-06-19T15:45:30;4.13;;;3.72;;
76574;SDS011;65439;50.948;6.988;2023-06-19T15:47:56;6.13;;;3.30;;
76574;SDS011;65439;50.948;6.988;2023-06-19T15:50:21;5.40;;;3.57;;